Aérodrome :
LOGIN :

S'inscrire | Disclaimer

   EN    FR    IT 

 










Légende :    VFR   VFR Marginal   IFR   IFR Intensif   IFR Très Intensif
Visi : 
Plafond : 
>= 8 km
>= 3000ft
5 à 8 km
1000 à 3000 ft
1500m à 5 km
500 à 1000 ft
800 à 1500m
200 à 500 ft
< 800m
< 200 ft
Symboles :   Orages  Brouillard  Fortes neiges  Fortes précipitations  Vent > 20 kt
SIGMETs :   Divers  Orages  Givrage  Turbulence  Onde Orograph.  Cendres Volcan.






- Altitude de l'aérodrome : 392 ft
- Code IATA : CDG


LFPG - Paris-Aeroport Charles De Gaulle

DERNIER METAR :
  • 140030Z 16016KT 9999 -RA FEW018 BKN036 BKN050 06/03 Q0994 TEMPO 19015G25KT 4000 RA BKN008

METARs EXPIRÉS :
  • 140000Z 16015KT 9999 -RA FEW018 BKN043 BKN120 06/03 Q0995 TEMPO 19015G25KT 4000 RA BKN008
  • 132300Z 15012KT 9999 FEW018 SCT043 BKN130 06/03 Q0996 NOSIG
  • 132230Z 17013KT 9999 FEW018 SCT046 BKN250 06/03 Q0996 NOSIG
  • 132200Z 17015KT 9999 FEW046 SCT100 BKN250 06/03 Q0997 NOSIG

TAF TAF LFPG
Valide du 14 à 00h jusqu'au 15 à 06h UTC


132300Z 1400/1506 18010KT 9999 BKN040 TX07/1414Z TN03/1423Z
TEMPO 1400/1403 19015G25KT 4000 RA BKN006
BECMG 1410/1412 BKN020
BECMG 1416/1418 08005KT
PROB40
TEMPO 1423/1502 3000 BR
PROB40
TEMPO 1503/1506 4000 -RA BKN007 BKN015
ATIS : +33 1 48 62 10 92



MET'MAP, la Météo Aéronautique d'un coup d'oeil ! - Copyright ORBIFLY Décembre 2007 - Disclaimer

ORBIFLY MET'MAP TEAM :

Programmation & Développement : Alexandra Zaïnal
Conception & Développement : Baudouin d'Aumeries
Co-Programmation & Développement : Marc-Olivier Méhu
Soutien technique & logistique : Manuel Goepfert

Contact : metmap@orbifly.com




SOURCES & CREDITS :

   NOAA